Time;durP1;ratioP1;P1;durP2;ratioP2;P2;SDS_P1;SDS_P2;PMS_P1;PMS_P2;Temp;Humidity;BMP_temperature;BMP_pressure;BME280_temperature;BME280_humidity;BME280_pressure;Samples;Min_cycle;Max_cycle;Signal;HPM_P1;HPM_P2
2022/08/14 00:01:51;;;;;;;60.22;38.45;;;27.00;99.90;;;;;;5034552;28;20032;-66
2022/08/14 00:04:18;;;;;;;40.13;29.23;;;27.10;99.90;;;;;;5024855;28;20068;-66
2022/08/14 00:06:44;;;;;;;37.35;25.38;;;27.20;99.90;;;;;;5014730;28;20113;-66
2022/08/14 00:09:11;;;;;;;39.08;27.77;;;27.30;99.90;;;;;;5014733;28;20026;-66
2022/08/14 00:11:37;;;;;;;47.38;29.95;;;27.40;99.90;;;;;;5014590;28;20030;-66
2022/08/14 00:14:04;;;;;;;51.65;32.35;;;27.40;99.90;;;;;;5014487;28;20041;-66
2022/08/14 00:16:31;;;;;;;47.88;32.90;;;27.40;99.90;;;;;;5014591;28;20457;-66
2022/08/14 00:18:59;;;;;;;44.53;29.58;;;27.40;99.90;;;;;;5013686;28;20491;-66
2022/08/14 00:21:25;;;;;;;48.88;31.48;;;27.30;99.90;;;;;;5014489;28;20076;-66
2022/08/14 00:23:53;;;;;;;51.05;31.38;;;27.30;99.90;;;;;;5005609;28;20101;-66
2022/08/14 00:26:19;;;;;;;46.67;31.40;;;27.30;99.90;;;;;;4998299;28;20038;-66
2022/08/14 00:28:46;;;;;;;50.40;32.97;;;27.30;99.90;;;;;;5014369;28;20050;-66
2022/08/14 00:31:13;;;;;;;52.40;34.25;;;27.40;99.90;;;;;;5014189;28;20026;-66
2022/08/14 00:33:40;;;;;;;52.17;36.20;;;27.50;99.90;;;;;;5009667;28;20022;-66
2022/08/14 00:36:08;;;;;;;59.67;38.30;;;27.50;99.90;;;;;;4997208;28;20434;-66
2022/08/14 00:38:37;;;;;;;46.47;33.97;;;27.50;99.90;;;;;;4994476;28;20137;-66
2022/08/14 00:41:06;;;;;;;47.80;30.85;;;27.50;99.90;;;;;;4994253;28;20490;-66
2022/08/14 00:43:36;;;;;;;47.50;30.58;;;27.40;99.90;;;;;;4994488;28;20502;-66
2022/08/14 00:46:06;;;;;;;55.80;36.83;;;27.40;99.90;;;;;;4994679;28;20055;-66
2022/08/14 00:48:33;;;;;;;50.15;37.78;;;27.30;99.90;;;;;;4994671;28;20030;-66
2022/08/14 00:51:00;;;;;;;52.75;38.80;;;27.30;99.90;;;;;;4994707;28;20053;-66
2022/08/14 00:53:27;;;;;;;56.05;39.65;;;27.30;99.90;;;;;;4994746;28;20026;-66
2022/08/14 00:55:55;;;;;;;56.70;41.00;;;27.30;99.90;;;;;;4993884;28;20054;-66
2022/08/14 00:58:31;;;;;;;53.78;38.28;;;27.30;99.90;;;;;;4993909;28;20395;-66
2022/08/14 01:01:00;;;;;;;52.13;36.50;;;27.30;99.90;;;;;;4993928;28;20026;-66
2022/08/14 01:03:28;;;;;;;55.33;36.22;;;27.40;99.90;;;;;;4994268;28;20049;-66
2022/08/14 01:05:56;;;;;;;54.13;38.80;;;27.40;99.90;;;;;;4993994;28;20034;-66
2022/08/14 01:08:26;;;;;;;44.28;35.65;;;27.40;99.90;;;;;;4993809;28;20029;-66
2022/08/14 01:10:55;;;;;;;51.45;36.55;;;27.50;99.90;;;;;;4993950;28;20122;-66
2022/08/14 01:13:31;;;;;;;52.13;39.53;;;27.60;99.90;;;;;;4993653;28;20146;-66
2022/08/14 01:16:00;;;;;;;47.72;33.10;;;27.50;99.90;;;;;;4993933;28;20514;-66
2022/08/14 01:21:19;;;;;;;53.80;41.80;;;27.50;99.90;;;;;;4993669;28;20025;-67
2022/08/14 01:23:49;;;;;;;62.55;44.25;;;27.70;99.90;;;;;;4993744;28;20025;-66
2022/08/14 01:26:19;;;;;;;60.10;45.58;;;27.70;99.90;;;;;;4993625;28;20030;-65
2022/08/14 01:28:47;;;;;;;52.83;41.42;;;27.70;99.90;;;;;;4994025;28;20026;-66
2022/08/14 01:31:17;;;;;;;65.10;44.22;;;27.70;99.90;;;;;;4997171;28;20027;-67
2022/08/14 01:33:48;;;;;;;64.72;42.17;;;27.70;99.90;;;;;;4997640;28;20018;-66
2022/08/14 01:36:16;;;;;;;51.92;41.90;;;27.80;99.90;;;;;;4997674;28;20129;-66
2022/08/14 01:38:47;;;;;;;66.03;47.65;;;27.80;99.90;;;;;;4997732;28;20069;-65
2022/08/14 01:41:19;;;;;;;66.85;49.15;;;27.90;99.90;;;;;;4997208;28;20046;-66
2022/08/14 01:43:53;;;;;;;75.00;57.78;;;27.90;99.90;;;;;;4997519;28;20065;-65
2022/08/14 01:46:23;;;;;;;69.43;54.13;;;28.00;99.90;;;;;;4997221;28;20110;-66
2022/08/14 01:48:51;;;;;;;68.65;50.30;;;28.00;99.90;;;;;;4997453;28;20537;-66
2022/08/14 01:51:28;;;;;;;72.00;51.20;;;28.10;99.90;;;;;;4997358;28;20097;-66
2022/08/14 01:53:59;;;;;;;79.18;59.88;;;28.20;99.90;;;;;;4997194;28;20022;-65
2022/08/14 01:56:43;;;;;;;66.97;49.60;;;28.30;99.90;;;;;;4996985;28;20030;-66
2022/08/14 01:59:28;;;;;;;63.03;45.15;;;28.40;99.90;;;;;;4996861;28;20106;-66
2022/08/14 02:01:57;;;;;;;58.55;42.75;;;28.50;99.90;;;;;;4997381;28;20053;-65
2022/08/14 02:04:29;;;;;;;60.35;41.92;;;28.60;99.90;;;;;;4996826;28;20052;-65
2022/08/14 02:06:56;;;;;;;61.53;43.13;;;28.60;99.90;;;;;;4996904;28;20026;-64
2022/08/14 02:09:23;;;;;;;62.88;45.35;;;28.60;99.90;;;;;;4996888;28;20110;-65
2022/08/14 02:11:52;;;;;;;57.33;40.45;;;28.60;99.90;;;;;;4996715;28;20030;-66
2022/08/14 02:14:18;;;;;;;68.07;44.95;;;28.60;99.90;;;;;;4996609;28;20042;-66
2022/08/14 02:16:51;;;;;;;68.30;42.78;;;28.60;99.90;;;;;;4996640;28;20050;-66
2022/08/14 02:19:27;;;;;;;57.40;42.55;;;28.60;99.90;;;;;;4996825;28;20049;-65
2022/08/14 02:21:57;;;;;;;60.03;43.70;;;28.70;99.90;;;;;;4996636;28;20460;-66
2022/08/14 02:24:28;;;;;;;52.58;40.53;;;28.80;99.90;;;;;;4979340;28;20384;-65
2022/08/14 02:26:58;;;;;;;64.53;44.38;;;28.90;99.90;;;;;;4996668;28;20026;-66
2022/08/14 02:29:27;;;;;;;61.50;45.67;;;29.00;99.90;;;;;;4996698;28;20018;-65
2022/08/14 02:31:57;;;;;;;63.38;43.05;;;29.00;99.90;;;;;;4996429;28;20042;-65
2022/08/14 02:34:29;;;;;;;70.35;48.83;;;29.00;99.90;;;;;;5007517;28;20030;-65
2022/08/14 02:37:01;;;;;;;71.97;49.40;;;29.10;99.90;;;;;;4996516;28;20525;-65
2022/08/14 02:39:29;;;;;;;74.75;50.30;;;29.10;99.90;;;;;;4996876;28;20034;-64
2022/08/14 02:41:56;;;;;;;65.38;50.88;;;29.10;99.90;;;;;;4995854;28;20050;-64
2022/08/14 02:44:23;;;;;;;75.68;54.28;;;29.10;99.90;;;;;;4996233;28;20030;-65
2022/08/14 02:46:54;;;;;;;74.25;52.03;;;29.10;99.90;;;;;;4996486;28;20083;-66
2022/08/14 02:49:26;;;;;;;66.15;49.78;;;29.10;99.90;;;;;;4996434;28;20485;-65
2022/08/14 02:51:54;;;;;;;81.13;57.22;;;29.10;99.90;;;;;;4996332;28;20061;-65
2022/08/14 02:54:23;;;;;;;73.65;54.25;;;29.20;99.90;;;;;;4996233;28;20367;-66
2022/08/14 02:56:52;;;;;;;85.85;59.75;;;29.40;99.90;;;;;;4995963;28;20027;-66
2022/08/14 02:59:19;;;;;;;78.75;58.88;;;29.40;99.90;;;;;;4996208;28;20023;-64
2022/08/14 03:01:46;;;;;;;83.95;58.50;;;29.40;99.90;;;;;;4995912;28;20042;-64
2022/08/14 03:04:14;;;;;;;71.40;52.75;;;29.50;99.90;;;;;;4996484;28;20029;-64
2022/08/14 03:06:43;;;;;;;81.53;55.55;;;29.50;99.90;;;;;;5007497;28;20041;-64
2022/08/14 03:09:10;;;;;;;70.28;53.97;;;29.60;99.90;;;;;;4997822;28;20037;-64
2022/08/14 03:11:38;;;;;;;66.22;49.60;;;29.70;99.90;;;;;;4998016;28;20046;-63
2022/08/14 03:14:05;;;;;;;66.65;49.40;;;29.80;99.90;;;;;;4998103;28;20038;-64
2022/08/14 03:16:34;;;;;;;71.25;52.03;;;29.70;99.90;;;;;;4997908;28;20138;-63
2022/08/14 03:19:02;;;;;;;67.75;52.38;;;29.70;99.90;;;;;;4998217;28;20062;-64
2022/08/14 03:21:30;;;;;;;68.78;52.72;;;29.60;99.90;;;;;;4998359;28;20027;-67
2022/08/14 03:26:32;;;;;;;81.18;55.42;;;29.70;99.90;;;;;;4998339;28;20014;-66
2022/08/14 03:29:00;;;;;;;77.07;54.65;;;29.70;99.90;;;;;;4997892;28;20048;-68
2022/08/14 03:31:27;;;;;;;69.47;50.75;;;29.60;99.90;;;;;;4997919;28;20054;-66
2022/08/14 03:33:54;;;;;;;62.47;42.58;;;29.70;99.90;;;;;;4997546;28;20102;-66
2022/08/14 03:36:21;;;;;;;45.92;32.90;;;29.90;99.90;;;;;;4997728;28;20026;-67
2022/08/14 03:38:51;;;;;;;50.35;32.88;;;30.00;99.90;;;;;;4996920;28;20023;-66
2022/08/14 03:41:22;;;;;;;48.97;34.00;;;30.10;99.90;;;;;;4998296;28;20023;-67
2022/08/14 03:43:55;;;;;;;50.90;33.28;;;30.00;99.90;;;;;;4998039;28;20030;-67
2022/08/14 03:46:23;;;;;;;49.83;34.15;;;29.90;99.90;;;;;;4999175;28;20434;-67
2022/08/14 03:48:49;;;;;;;50.60;32.75;;;29.90;99.90;;;;;;5010908;28;20286;-67
2022/08/14 03:51:16;;;;;;;49.03;31.77;;;29.80;99.90;;;;;;5010086;28;20391;-67
2022/08/14 03:53:45;;;;;;;43.10;31.48;;;29.70;99.90;;;;;;5020071;23;20046;-64
2022/08/14 03:56:14;;;;;;;54.13;31.88;;;29.70;99.90;;;;;;5036844;28;20046;-65
2022/08/14 03:58:47;;;;;;;49.38;30.27;;;29.60;99.90;;;;;;5037083;28;20033;-65
2022/08/14 04:01:18;;;;;;;44.88;32.30;;;29.70;99.90;;;;;;5036181;28;20286;-63
2022/08/14 04:03:45;;;;;;;49.60;34.20;;;29.90;99.90;;;;;;5031462;28;20069;-64
2022/08/14 04:06:13;;;;;;;50.38;31.67;;;30.00;99.90;;;;;;5015574;28;20018;-64
2022/08/14 04:08:41;;;;;;;51.25;35.80;;;30.10;99.90;;;;;;5016630;28;20037;-63
2022/08/14 04:11:09;;;;;;;58.78;37.38;;;30.10;99.90;;;;;;5017075;28;20025;-63
2022/08/14 04:13:38;;;;;;;51.85;36.05;;;30.10;99.90;;;;;;5017153;28;20030;-63
2022/08/14 04:16:09;;;;;;;42.20;31.27;;;30.20;99.90;;;;;;5016750;28;20108;-65
2022/08/14 04:18:41;;;;;;;40.42;31.98;;;30.20;99.90;;;;;;5015628;28;20029;-65
2022/08/14 04:21:09;;;;;;;59.85;40.30;;;30.20;99.90;;;;;;5013037;28;20217;-65
2022/08/14 04:23:36;;;;;;;67.28;41.90;;;30.20;99.90;;;;;;5015346;28;20097;-65
2022/08/14 04:26:05;;;;;;;57.35;40.85;;;30.30;99.90;;;;;;5015643;28;20388;-65
2022/08/14 04:28:32;;;;;;;61.22;42.85;;;30.30;99.90;;;;;;5015810;28;20399;-65
2022/08/14 04:30:58;;;;;;;60.55;41.90;;;30.30;99.90;;;;;;5015388;28;20022;-64
2022/08/14 04:33:25;;;;;;;65.95;44.40;;;30.30;99.90;;;;;;5015547;28;20028;-65
2022/08/14 04:35:51;;;;;;;69.55;49.45;;;30.50;99.90;;;;;;5015449;28;20134;-65
2022/08/14 04:43:54;;;;;;;57.60;42.83;;;30.50;99.90;;;;;;5015116;28;20247;-65
2022/08/14 04:46:23;;;;;;;57.05;39.58;;;30.40;99.90;;;;;;5014909;28;20425;-65
2022/08/14 04:48:50;;;;;;;58.00;42.20;;;30.50;99.90;;;;;;5015328;28;20045;-64
2022/08/14 04:51:24;;;;;;;51.80;39.25;;;30.50;99.90;;;;;;5014811;28;20018;-65
2022/08/14 04:53:51;;;;;;;83.85;58.47;;;30.50;99.90;;;;;;5015062;28;20061;-69
2022/08/14 04:56:21;;;;;;;79.82;52.00;;;30.50;99.90;;;;;;5015509;28;20034;-78
2022/08/14 04:58:54;;;;;;;64.45;45.47;;;30.50;99.90;;;;;;4996506;28;20198;-76
2022/08/14 05:01:21;;;;;;;72.45;49.75;;;30.40;99.90;;;;;;5015964;28;20374;-77
2022/08/14 05:03:48;;;;;;;88.53;55.15;;;30.40;99.90;;;;;;5014757;28;20018;-77
2022/08/14 05:06:15;;;;;;;63.50;46.30;;;30.50;99.90;;;;;;5017037;28;20098;-75
2022/08/14 05:08:42;;;;;;;63.63;45.40;;;30.60;99.90;;;;;;5017967;28;20473;-77
2022/08/14 05:11:09;;;;;;;64.22;44.90;;;30.80;99.90;;;;;;5017661;28;20032;-77
2022/08/14 05:13:36;;;;;;;67.13;46.90;;;30.90;99.90;;;;;;5017709;28;20050;-65
2022/08/14 05:16:05;;;;;;;74.53;51.05;;;31.00;99.90;;;;;;5017482;28;20029;-68
2022/08/14 05:18:34;;;;;;;70.78;50.42;;;31.20;99.90;;;;;;5014986;28;20026;-68
2022/08/14 05:21:04;;;;;;;69.95;49.45;;;31.40;99.90;;;;;;5017476;28;20018;-67
2022/08/14 05:23:33;;;;;;;68.90;46.92;;;31.50;99.90;;;;;;5015243;28;20085;-68
2022/08/14 05:26:02;;;;;;;71.97;48.38;;;31.60;99.90;;;;;;5015735;28;20459;-67
2022/08/14 05:28:31;;;;;;;71.05;48.28;;;31.70;99.90;;;;;;5008216;28;20030;-68
2022/08/14 05:31:01;;;;;;;66.53;47.55;;;31.70;99.90;;;;;;5006829;28;20061;-68
2022/08/14 05:33:29;;;;;;;63.05;48.70;;;31.70;99.90;;;;;;5016554;28;20018;-67
2022/08/14 05:36:00;;;;;;;146.02;112.18;;;31.70;99.90;;;;;;5016701;28;20022;-67
2022/08/14 05:38:32;;;;;;;86.20;62.50;;;31.70;99.90;;;;;;5016473;28;20430;-66
2022/08/14 05:41:01;;;;;;;70.93;51.25;;;31.70;99.90;;;;;;5016148;28;20519;-66
2022/08/14 05:43:29;;;;;;;65.35;48.70;;;31.70;99.90;;;;;;5017137;28;20124;-67
2022/08/14 05:45:57;;;;;;;70.38;50.13;;;31.70;99.90;;;;;;5016527;28;20022;-67
2022/08/14 05:48:25;;;;;;;76.57;51.22;;;31.60;99.90;;;;;;5016488;28;20043;-67
2022/08/14 05:50:53;;;;;;;82.57;61.22;;;31.60;99.90;;;;;;5014387;28;20026;-67
2022/08/14 05:53:25;;;;;;;100.13;74.50;;;31.60;99.90;;;;;;5016348;28;20535;-68
2022/08/14 05:55:54;;;;;;;90.90;71.47;;;31.50;99.90;;;;;;5012409;28;20187;-68
2022/08/14 05:58:21;;;;;;;75.95;54.92;;;31.50;99.90;;;;;;5015405;28;20101;-67
2022/08/14 06:00:49;;;;;;;98.00;66.78;;;31.50;99.90;;;;;;5017137;28;20021;-67
2022/08/14 06:03:18;;;;;;;82.25;55.80;;;31.40;99.90;;;;;;5016984;28;20059;-68
2022/08/14 06:05:52;;;;;;;70.70;52.17;;;31.30;99.90;;;;;;5016901;28;20037;-67
2022/08/14 06:08:22;;;;;;;91.28;62.75;;;31.20;99.90;;;;;;5016764;28;20053;-66
2022/08/14 06:10:50;;;;;;;83.00;57.83;;;31.20;99.90;;;;;;5017648;28;20026;-64
2022/08/14 06:13:18;;;;;;;79.78;58.00;;;31.20;99.90;;;;;;5017155;28;20348;-63
2022/08/14 06:15:45;;;;;;;76.60;55.10;;;31.20;99.90;;;;;;5015552;28;20045;-62
2022/08/14 06:18:14;;;;;;;79.13;56.17;;;31.20;99.90;;;;;;5014166;28;20386;-62
2022/08/14 06:20:40;;;;;;;76.85;56.47;;;31.10;99.90;;;;;;5015716;28;20022;-62
2022/08/14 06:23:07;;;;;;;62.45;43.75;;;31.20;99.90;;;;;;5014928;28;20022;-64
2022/08/14 06:25:33;;;;;;;65.07;41.65;;;31.20;99.90;;;;;;5014287;28;20030;-63
2022/08/14 06:28:00;;;;;;;95.25;55.08;;;31.20;99.90;;;;;;5014172;28;20058;-63
2022/08/14 06:30:32;;;;;;;83.20;54.22;;;31.30;99.90;;;;;;5016421;28;20038;-63
2022/08/14 06:32:58;;;;;;;63.38;44.78;;;31.40;99.90;;;;;;5016462;28;20475;-64
2022/08/14 06:35:25;;;;;;;68.35;47.92;;;31.40;99.90;;;;;;5013355;28;20105;-64
2022/08/14 06:37:54;;;;;;;62.67;47.80;;;31.50;99.90;;;;;;5015884;28;20541;-64
2022/08/14 06:40:22;;;;;;;91.25;68.32;;;31.40;99.90;;;;;;5016039;28;20029;-65
2022/08/14 06:42:49;;;;;;;78.13;54.42;;;31.50;99.90;;;;;;5015376;28;20101;-63
2022/08/14 06:45:16;;;;;;;85.70;61.85;;;31.40;99.90;;;;;;5013263;28;20178;-63
2022/08/14 06:47:45;;;;;;;86.20;59.58;;;31.50;99.90;;;;;;5014875;28;20041;-62
2022/08/14 06:50:16;;;;;;;72.15;52.75;;;31.50;99.90;;;;;;5014781;28;20271;-64
2022/08/14 06:52:44;;;;;;;70.18;50.15;;;31.50;99.90;;;;;;5012651;28;20053;-64
2022/08/14 06:55:13;;;;;;;50.45;37.85;;;31.50;99.90;;;;;;5014777;28;20049;-65
2022/08/14 06:57:47;;;;;;;74.18;51.50;;;31.50;99.90;;;;;;5009418;28;20030;-64
2022/08/14 07:00:18;;;;;;;37.35;28.27;;;31.50;99.90;;;;;;5000669;28;20018;-64
2022/08/14 07:08:21;;;;;;;104.15;61.80;;;31.60;99.90;;;;;;5013733;28;20037;-61
2022/08/14 07:10:52;;;;;;;117.68;69.03;;;31.60;99.90;;;;;;5013312;28;20042;-63
2022/08/14 07:13:19;;;;;;;46.15;30.13;;;31.60;99.90;;;;;;5014383;28;20033;-64
2022/08/14 07:15:50;;;;;;;38.95;26.40;;;31.50;99.90;;;;;;5012478;28;20168;-64
2022/08/14 07:18:29;;;;;;;49.20;32.63;;;31.60;99.90;;;;;;5012060;28;20030;-63
2022/08/14 07:20:57;;;;;;;38.75;25.30;;;31.50;99.90;;;;;;4995469;28;20014;-63
2022/08/14 07:23:24;;;;;;;28.95;19.65;;;31.50;99.90;;;;;;5002959;28;20029;-62
2022/08/14 07:25:55;;;;;;;28.63;18.55;;;31.50;99.90;;;;;;5005308;28;20383;-63
2022/08/14 07:28:27;;;;;;;27.60;18.65;;;31.30;99.90;;;;;;5004643;28;20030;-63
2022/08/14 07:30:57;;;;;;;27.77;18.65;;;31.20;99.90;;;;;;5006171;28;20194;-64
2022/08/14 07:33:28;;;;;;;29.98;18.90;;;31.00;99.90;;;;;;5012284;28;20073;-64
2022/08/14 07:36:05;;;;;;;31.20;17.53;;;30.80;99.90;;;;;;5014177;28;20036;-64
2022/08/14 07:38:31;;;;;;;30.83;18.88;;;30.80;99.90;;;;;;5014845;28;20294;-63
2022/08/14 07:40:58;;;;;;;32.05;18.83;;;30.60;99.90;;;;;;5014617;28;20041;-63
2022/08/14 07:43:25;;;;;;;30.10;16.80;;;30.60;99.90;;;;;;5014660;28;20034;-63
2022/08/14 07:45:52;;;;;;;22.40;14.52;;;30.50;99.90;;;;;;5014823;28;20060;-64
2022/08/14 07:48:19;;;;;;;29.77;17.92;;;30.40;99.90;;;;;;5014303;28;20030;-63
2022/08/14 07:50:46;;;;;;;96.20;76.10;;;30.30;99.90;;;;;;5014457;28;20034;-66
2022/08/14 07:53:14;;;;;;;25.42;15.10;;;30.20;99.90;;;;;;5013413;28;20022;-67
2022/08/14 07:55:42;;;;;;;19.23;13.10;;;30.10;99.90;;;;;;5014329;28;20136;-66
2022/08/14 07:58:09;;;;;;;28.98;15.35;;;30.00;99.90;;;;;;5014946;28;20033;-67
2022/08/14 08:00:37;;;;;;;28.92;15.75;;;30.00;99.90;;;;;;5015700;28;20049;-68
2022/08/14 08:03:09;;;;;;;28.08;14.40;;;29.90;99.90;;;;;;5012745;28;20014;-66
2022/08/14 08:05:36;;;;;;;;;;;30.00;99.90;;;;;;5016181;28;20041;-67
2022/08/14 08:08:04;;;;;;;19.27;13.70;;;29.90;99.90;;;;;;5008021;28;19910;-67
2022/08/14 08:10:31;;;;;;;20.25;11.77;;;29.80;99.90;;;;;;5003404;28;20480;-67
2022/08/14 08:13:04;;;;;;;24.38;13.55;;;29.70;99.90;;;;;;5007332;28;20044;-65
2022/08/14 08:15:35;;;;;;;15.20;10.95;;;29.90;99.90;;;;;;5005999;28;20364;-66
2022/08/14 08:18:04;;;;;;;22.02;12.30;;;29.90;99.90;;;;;;5003267;28;20030;-68
2022/08/14 08:20:36;;;;;;;28.38;15.35;;;29.80;99.90;;;;;;4994840;28;20439;-65
2022/08/14 08:23:05;;;;;;;249.23;189.13;;;29.90;99.90;;;;;;4994785;28;20472;-65
2022/08/14 08:25:35;;;;;;;40.50;22.42;;;30.00;99.90;;;;;;4998135;28;20065;-65
2022/08/14 08:28:07;;;;;;;51.28;29.20;;;30.00;99.90;;;;;;5014483;28;20029;-66
2022/08/14 08:30:36;;;;;;;43.15;24.48;;;30.00;99.90;;;;;;5013795;28;20021;-65
2022/08/14 08:33:04;;;;;;;23.38;15.82;;;29.90;99.90;;;;;;5039608;22;20057;-66
2022/08/14 08:35:34;;;;;;;27.38;14.68;;;29.90;99.90;;;;;;5034634;28;20100;-65
2022/08/14 08:38:03;;;;;;;38.83;27.77;;;29.80;99.90;;;;;;5034895;28;20459;-66
2022/08/14 08:40:35;;;;;;;77.15;46.28;;;29.80;99.90;;;;;;5034307;28;20108;-64
2022/08/14 08:43:17;;;;;;;42.03;21.10;;;29.90;99.90;;;;;;5034200;28;20021;-63
2022/08/14 08:45:43;;;;;;;;;;;29.90;99.90;;;;;;5033941;28;20564;-67
2022/08/14 08:48:10;;;;;;;63.95;42.35;;;30.00;99.90;;;;;;5034089;28;20338;-66
2022/08/14 08:50:38;;;;;;;36.13;21.35;;;30.00;99.90;;;;;;5033779;28;20033;-66
2022/08/14 08:53:08;;;;;;;35.25;21.27;;;30.00;99.90;;;;;;5046368;28;20118;-66
2022/08/14 08:55:39;;;;;;;54.53;31.85;;;30.00;99.90;;;;;;5035541;28;20053;-66
2022/08/14 08:58:08;;;;;;;83.20;57.95;;;29.90;99.90;;;;;;5015826;28;20069;-67
2022/08/14 09:00:37;;;;;;;53.67;30.63;;;30.00;99.90;;;;;;5015293;28;20018;-66
2022/08/14 09:03:09;;;;;;;44.17;30.52;;;29.90;99.90;;;;;;5016538;28;20026;-67
2022/08/14 09:05:37;;;;;;;47.05;24.27;;;29.90;99.90;;;;;;5012956;28;20460;-65
2022/08/14 09:08:12;;;;;;;45.97;26.17;;;29.90;99.90;;;;;;5013582;28;20061;-65
2022/08/14 09:10:38;;;;;;;55.67;27.38;;;29.90;99.90;;;;;;5013561;28;20040;-67
2022/08/14 09:13:05;;;;;;;64.70;33.42;;;29.80;99.90;;;;;;5013196;28;20529;-69
2022/08/14 09:15:32;;;;;;;69.70;31.58;;;29.80;99.90;;;;;;5012520;28;20026;-67
2022/08/14 09:18:00;;;;;;;73.05;37.63;;;29.70;99.90;;;;;;5013029;28;20022;-67
2022/08/14 09:20:26;;;;;;;86.57;53.13;;;29.70;99.90;;;;;;5022588;28;20053;-67
2022/08/14 09:22:54;;;;;;;70.53;48.22;;;29.60;99.90;;;;;;5033630;28;20569;-65
2022/08/14 09:25:21;;;;;;;77.40;50.05;;;29.50;99.90;;;;;;5031475;28;20022;-66
2022/08/14 09:27:48;;;;;;;45.85;28.23;;;29.40;99.90;;;;;;5014083;28;20021;-66
2022/08/14 09:30:14;;;;;;;41.58;26.40;;;29.40;99.90;;;;;;5019549;28;20041;-65
2022/08/14 09:33:01;;;;;;;34.50;25.52;;;29.40;99.90;;;;;;5012982;28;20026;-67
2022/08/14 09:36:06;;;;;;;40.83;25.77;;;29.50;99.90;;;;;;4904409;29;20044;-67
2022/08/14 09:39:05;;;;;;;43.63;25.13;;;29.50;99.90;;;;;;4914968;29;20044;-67
2022/08/14 09:42:11;;;;;;;47.97;28.48;;;29.50;99.90;;;;;;4858641;29;20499;-67
2022/08/14 09:44:45;;;;;;;45.47;26.55;;;29.50;99.90;;;;;;4786188;30;20047;-66
2022/08/14 09:47:13;;;;;;;86.70;53.03;;;29.50;99.90;;;;;;4785334;30;20043;-66
2022/08/14 09:49:41;;;;;;;119.35;75.07;;;29.60;99.90;;;;;;4786191;30;20562;-66
2022/08/14 09:52:10;;;;;;;83.78;48.55;;;29.60;99.90;;;;;;4779354;29;20055;-67
2022/08/14 09:54:42;;;;;;;71.78;46.72;;;29.70;99.90;;;;;;4772218;30;20147;-66
2022/08/14 09:57:10;;;;;;;59.63;37.38;;;29.60;99.90;;;;;;4772021;30;20519;-67
2022/08/14 09:59:48;;;;;;;53.90;30.90;;;29.50;99.90;;;;;;4772150;30;20044;-67
2022/08/14 10:02:34;;;;;;;55.67;32.25;;;29.50;99.90;;;;;;4771089;29;20498;-67
2022/08/14 10:05:01;;;;;;;56.67;32.42;;;29.60;99.90;;;;;;4788708;30;20047;-67
2022/08/14 10:07:31;;;;;;;54.88;34.38;;;29.50;99.90;;;;;;4784187;30;20036;-67
2022/08/14 10:09:59;;;;;;;54.97;30.77;;;29.50;99.90;;;;;;4771938;30;20073;-67
2022/08/14 10:12:41;;;;;;;60.10;30.55;;;29.40;99.90;;;;;;4773825;30;20043;-67
2022/08/14 10:15:19;;;;;;;57.83;28.38;;;29.40;99.90;;;;;;4779387;30;20044;-67
2022/08/14 10:17:47;;;;;;;57.97;29.25;;;29.40;99.90;;;;;;4775526;29;20031;-67
2022/08/14 10:20:19;;;;;;;49.03;28.35;;;29.40;99.90;;;;;;4789867;30;20105;-68
2022/08/14 10:22:48;;;;;;;49.45;28.80;;;29.40;99.90;;;;;;4823622;29;20065;-66
2022/08/14 10:25:16;;;;;;;45.72;25.67;;;29.30;99.90;;;;;;4825727;29;20105;-67
2022/08/14 10:27:45;;;;;;;39.78;26.95;;;29.20;99.90;;;;;;4829542;29;20041;-66
2022/08/14 10:30:19;;;;;;;60.40;36.58;;;29.20;99.90;;;;;;4844011;29;20041;-67
2022/08/14 10:32:47;;;;;;;51.40;31.73;;;29.20;99.90;;;;;;4926368;29;20035;-66
2022/08/14 10:35:15;;;;;;;50.45;28.15;;;29.20;99.90;;;;;;4937453;29;20040;-67
2022/08/14 10:37:51;;;;;;;47.13;29.90;;;29.20;99.90;;;;;;4937420;29;20032;-67
2022/08/14 10:40:29;;;;;;;58.55;37.92;;;29.20;99.90;;;;;;4937848;29;20024;-67
2022/08/14 10:42:56;;;;;;;82.03;48.92;;;29.30;99.90;;;;;;4936899;29;20027;-67
2022/08/14 10:45:34;;;;;;;93.45;54.70;;;29.30;99.90;;;;;;4937872;29;20123;-66
2022/08/14 10:48:00;;;;;;;74.93;46.38;;;29.40;99.90;;;;;;5017194;28;20398;-67
2022/08/14 10:50:31;;;;;;;85.97;48.97;;;29.30;99.90;;;;;;5036291;28;20360;-67
2022/08/14 10:52:59;;;;;;;89.97;53.90;;;29.20;99.90;;;;;;5036367;28;20026;-66
2022/08/14 10:55:38;;;;;;;76.07;48.80;;;29.20;99.90;;;;;;5036292;28;20443;-67
2022/08/14 10:58:09;;;;;;;83.10;46.00;;;29.20;99.90;;;;;;5018751;28;20030;-66
2022/08/14 11:00:37;;;;;;;73.57;46.50;;;29.20;99.90;;;;;;5036511;28;20533;-66
2022/08/14 11:03:12;;;;;;;67.35;43.72;;;29.10;99.90;;;;;;5034591;28;20455;-66
2022/08/14 11:05:47;;;;;;;82.85;48.75;;;29.10;99.90;;;;;;5016155;28;20037;-67
2022/08/14 11:08:16;;;;;;;72.60;45.85;;;29.10;99.90;;;;;;5015967;28;20026;-68
2022/08/14 11:10:45;;;;;;;85.65;47.47;;;29.00;99.90;;;;;;5015747;28;20029;-67
2022/08/14 11:13:24;;;;;;;90.82;51.45;;;29.00;99.90;;;;;;5015935;28;20391;-67
2022/08/14 11:15:52;;;;;;;87.85;53.22;;;29.00;99.90;;;;;;5017903;28;20084;-66
2022/08/14 11:18:19;;;;;;;94.18;59.17;;;29.10;99.90;;;;;;5021343;28;20025;-67
2022/08/14 11:20:54;;;;;;;91.78;59.83;;;29.10;99.90;;;;;;5015492;28;20028;-67
2022/08/14 11:23:32;;;;;;;122.43;69.75;;;29.20;99.90;;;;;;5013985;28;20029;-67
2022/08/14 11:26:00;;;;;;;105.32;61.72;;;29.10;99.90;;;;;;5015825;28;20026;-66
2022/08/14 11:28:33;;;;;;;111.38;58.60;;;29.10;99.90;;;;;;5015617;28;20080;-67
2022/08/14 11:31:02;;;;;;;104.97;63.35;;;29.20;99.90;;;;;;5015722;28;20030;-70
2022/08/14 11:33:34;;;;;;;104.03;63.05;;;29.20;99.90;;;;;;4997801;28;20411;-68
2022/08/14 11:36:04;;;;;;;106.93;59.65;;;29.20;99.90;;;;;;5014973;28;20030;-68
2022/08/14 11:38:39;;;;;;;99.72;62.28;;;29.30;99.90;;;;;;5014925;28;20030;-68
2022/08/14 11:41:07;;;;;;;104.40;60.03;;;29.20;99.90;;;;;;5015147;28;20368;-71
2022/08/14 11:43:45;;;;;;;105.88;60.95;;;29.30;99.90;;;;;;5015081;28;20079;-71
2022/08/14 11:46:14;;;;;;;116.28;72.93;;;29.40;99.90;;;;;;5014806;28;20382;-71
2022/08/14 11:48:46;;;;;;;108.60;63.30;;;29.40;99.90;;;;;;5015106;28;20364;-70
2022/08/14 11:51:22;;;;;;;98.53;57.28;;;29.40;99.90;;;;;;5015542;28;20032;-70
2022/08/14 11:53:53;;;;;;;85.95;48.78;;;29.30;99.90;;;;;;5014858;28;20033;-70
2022/08/14 11:56:21;;;;;;;76.53;46.28;;;29.30;99.90;;;;;;5014939;28;20037;-68
2022/08/14 11:58:53;;;;;;;68.85;40.47;;;29.20;99.90;;;;;;5014946;28;20030;-68
2022/08/14 12:01:30;;;;;;;62.75;33.40;;;29.20;99.90;;;;;;5012919;28;20374;-68
2022/08/14 12:04:09;;;;;;;55.63;31.88;;;29.10;99.90;;;;;;5014061;28;20053;-68
2022/08/14 12:06:47;;;;;;;57.20;30.52;;;29.20;99.90;;;;;;5013204;28;20026;-70
2022/08/14 12:09:27;;;;;;;51.85;29.30;;;29.20;99.90;;;;;;5012857;28;20025;-69
2022/08/14 12:11:54;;;;;;;46.75;25.33;;;29.10;99.90;;;;;;5012986;28;20053;-69
2022/08/14 12:14:22;;;;;;;40.95;23.00;;;29.10;99.90;;;;;;5012940;28;20021;-71
2022/08/14 12:17:08;;;;;;;32.35;21.02;;;29.10;99.90;;;;;;5013693;28;20037;-70
2022/08/14 12:20:00;;;;;;;31.63;21.05;;;29.10;99.90;;;;;;5012963;28;20017;-72
2022/08/14 12:22:36;;;;;;;34.88;21.08;;;29.00;99.90;;;;;;5011627;28;20506;-71
2022/08/14 12:25:07;;;;;;;37.83;20.60;;;28.90;99.90;;;;;;5013413;28;20075;-67
2022/08/14 12:27:39;;;;;;;41.35;20.50;;;28.90;99.90;;;;;;5013537;28;20470;-70
2022/08/14 12:30:06;;;;;;;36.35;18.40;;;28.90;99.90;;;;;;5012580;28;20475;-70
2022/08/14 12:32:45;;;;;;;34.75;19.27;;;28.90;99.90;;;;;;5013030;28;20478;-69
2022/08/14 12:35:13;;;;;;;29.05;19.50;;;29.00;99.90;;;;;;5011674;28;20033;-73
2022/08/14 12:37:47;;;;;;;36.08;18.90;;;29.10;99.90;;;;;;4995543;28;20367;-72
2022/08/14 12:40:17;;;;;;;26.88;17.75;;;29.10;99.90;;;;;;5012375;28;20067;-71
2022/08/14 12:42:44;;;;;;;30.00;20.50;;;29.00;99.90;;;;;;5010981;28;20100;-70
2022/08/14 12:45:12;;;;;;;32.38;18.77;;;28.90;99.90;;;;;;5023162;28;20390;-70
2022/08/14 12:47:41;;;;;;;35.17;19.92;;;28.90;99.90;;;;;;5013184;28;20523;-71
2022/08/14 12:50:09;;;;;;;36.33;19.98;;;28.90;99.90;;;;;;5012824;28;20033;-69
2022/08/14 12:52:40;;;;;;;28.27;17.17;;;28.90;99.90;;;;;;5013854;28;20022;-69
2022/08/14 12:55:09;;;;;;;34.95;17.83;;;28.90;99.90;;;;;;5013853;28;20383;-69
2022/08/14 12:57:40;;;;;;;27.38;17.50;;;28.80;99.90;;;;;;5013590;28;20105;-69
2022/08/14 13:00:14;;;;;;;47.88;32.75;;;28.80;99.90;;;;;;5013461;28;20022;-69